Time;durP1;ratioP1;P1;durP2;ratioP2;P2;SDS_P1;SDS_P2;PMS_P1;PMS_P2;Temp;Humidity;BMP_temperature;BMP_pressure;BME280_temperature;BME280_humidity;BME280_pressure;Samples;Min_cycle;Max_cycle;Signal;HPM_P1;HPM_P2
2021/05/01 00:01:54;;;;;;;21.77;17.23;;;9.10;1.00;;;;;;5061799;28;20260;-85
2021/05/01 00:04:20;;;;;;;24.80;19.07;;;9.00;1.00;;;;;;5061687;28;20693;-79
2021/05/01 00:06:46;;;;;;;20.97;17.47;;;9.00;1.00;;;;;;5063320;28;20194;-86
2021/05/01 00:09:11;;;;;;;21.30;18.80;;;8.90;1.00;;;;;;5064478;28;20203;-81
2021/05/01 00:11:37;;;;;;;22.60;17.43;;;8.90;1.00;;;;;;5063906;28;20217;-86
2021/05/01 00:14:04;;;;;;;27.07;18.97;;;8.90;1.00;;;;;;5072476;28;20690;-86
2021/05/01 00:16:29;;;;;;;24.40;17.57;;;8.70;6.60;;;;;;5070206;28;20267;-86
2021/05/01 00:18:55;;;;;;;20.13;17.97;;;8.50;12.60;;;;;;5072624;28;20341;-77
2021/05/01 00:21:22;;;;;;;20.53;17.63;;;8.50;22.70;;;;;;5073364;28;20168;-80
2021/05/01 00:23:48;;;;;;;21.27;17.47;;;8.20;30.50;;;;;;5073201;28;20712;-78
2021/05/01 00:26:13;;;;;;;19.93;17.17;;;8.10;38.00;;;;;;5073245;28;20196;-81
2021/05/01 00:28:40;;;;;;;19.70;17.57;;;8.10;43.80;;;;;;5073003;28;20259;-85
2021/05/01 00:31:06;;;;;;;22.53;18.50;;;8.10;45.90;;;;;;5072930;28;20168;-78
2021/05/01 00:33:32;;;;;;;21.53;17.10;;;8.10;46.70;;;;;;5072908;28;20202;-79
2021/05/01 00:35:58;;;;;;;22.87;17.60;;;8.20;46.80;;;;;;5073207;28;20176;-83
2021/05/01 00:38:24;;;;;;;19.90;17.73;;;8.40;42.30;;;;;;5073732;28;20732;-82
2021/05/01 00:40:49;;;;;;;24.23;18.60;;;8.50;39.30;;;;;;5075360;28;20168;-86
2021/05/01 00:43:15;;;;;;;26.67;19.57;;;8.60;36.30;;;;;;5074582;28;20636;-77
2021/05/01 00:45:41;;;;;;;21.37;16.67;;;8.50;34.90;;;;;;5074465;28;20168;-82
2021/05/01 00:48:07;;;;;;;21.97;16.63;;;8.40;37.70;;;;;;5079906;28;20184;-78
2021/05/01 00:50:32;;;;;;;18.53;14.97;;;8.30;39.50;;;;;;5080482;28;20187;-78
2021/05/01 00:52:58;;;;;;;24.67;16.90;;;8.30;41.00;;;;;;5081808;28;20165;-76
2021/05/01 00:55:24;;;;;;;21.83;17.50;;;8.40;37.00;;;;;;5076542;28;20539;-83
2021/05/01 00:57:50;;;;;;;24.67;17.33;;;8.50;35.40;;;;;;5072886;28;20175;-78
2021/05/01 01:02:57;;;;;;;21.83;18.43;;;8.60;32.60;;;;;;5072211;28;20217;-82
2021/05/01 01:05:23;;;;;;;23.63;18.93;;;8.60;24.10;;;;;;5072654;28;20180;-80
2021/05/01 01:07:49;;;;;;;21.57;18.80;;;8.50;13.80;;;;;;5072983;28;20191;-84
2021/05/01 01:10:14;;;;;;;22.93;19.30;;;8.40;15.10;;;;;;5072811;28;20620;-76
2021/05/01 01:12:40;;;;;;;22.87;19.53;;;8.50;5.90;;;;;;5072960;28;20166;-80
2021/05/01 01:15:07;;;;;;;22.17;19.77;;;8.50;1.00;;;;;;5072558;28;20214;-84
2021/05/01 01:17:33;;;;;;;23.50;19.57;;;8.40;1.00;;;;;;5072445;28;20204;-80
2021/05/01 01:19:58;;;;;;;26.50;20.37;;;8.50;1.00;;;;;;5072610;28;20231;-81
2021/05/01 01:22:24;;;;;;;25.67;21.03;;;8.50;1.00;;;;;;5073107;28;20631;-82
2021/05/01 01:24:49;;;;;;;26.97;20.33;;;8.20;1.00;;;;;;5072782;28;20246;-80
2021/05/01 01:27:15;;;;;;;21.87;19.57;;;8.10;1.00;;;;;;5072682;28;20172;-83
2021/05/01 01:29:42;;;;;;;21.83;19.30;;;8.10;1.00;;;;;;5072638;28;20226;-79
2021/05/01 01:32:11;;;;;;;25.53;20.93;;;8.10;1.00;;;;;;5072055;28;20169;-83
2021/05/01 01:34:43;;;;;;;25.30;19.93;;;8.20;1.00;;;;;;5072785;28;20179;-84
2021/05/01 01:37:10;;;;;;;25.73;20.10;;;8.10;1.00;;;;;;5072434;28;20164;-86
2021/05/01 01:39:36;;;;;;;24.83;20.70;;;8.00;1.00;;;;;;5072469;28;20204;-80
2021/05/01 01:42:02;;;;;;;26.30;20.57;;;8.00;1.00;;;;;;5072319;28;20170;-84
2021/05/01 01:44:27;;;;;;;22.53;20.23;;;8.00;1.00;;;;;;5072276;28;20682;-78
2021/05/01 01:46:53;;;;;;;24.77;19.87;;;8.00;1.00;;;;;;5072450;28;20172;-86
2021/05/01 01:49:19;;;;;;;29.60;21.20;;;8.00;1.00;;;;;;5072431;28;20179;-80
2021/05/01 01:51:44;;;;;;;24.80;21.10;;;8.00;4.20;;;;;;5072347;28;20176;-75
2021/05/01 01:54:10;;;;;;;23.47;20.37;;;8.00;7.10;;;;;;5072521;28;20180;-77
2021/05/01 01:56:38;;;;;;;31.30;21.83;;;8.00;11.80;;;;;;5074128;28;20175;-79
2021/05/01 01:59:05;;;;;;;24.23;21.00;;;8.00;13.50;;;;;;5076038;28;20245;-85
2021/05/01 02:01:34;;;;;;;26.37;20.50;;;8.00;13.50;;;;;;5075957;28;20249;-77
2021/05/01 02:04:01;;;;;;;23.33;20.03;;;8.10;7.30;;;;;;5076134;28;20165;-82
2021/05/01 02:06:26;;;;;;;23.93;20.90;;;8.10;2.50;;;;;;5076310;28;20188;-80
2021/05/01 02:08:52;;;;;;;23.97;21.10;;;8.20;1.00;;;;;;5076072;28;20168;-76
2021/05/01 02:11:18;;;;;;;27.43;22.50;;;8.20;1.00;;;;;;5075973;28;20219;-77
2021/05/01 02:13:44;;;;;;;26.00;21.20;;;8.20;1.00;;;;;;5076034;28;20171;-78
2021/05/01 02:16:10;;;;;;;23.37;20.87;;;8.10;1.00;;;;;;5076089;28;20187;-83
2021/05/01 02:18:36;;;;;;;24.73;20.40;;;8.00;3.10;;;;;;5076278;28;20215;-84
2021/05/01 02:21:02;;;;;;;23.93;20.27;;;7.90;12.60;;;;;;5075450;28;20179;-81
2021/05/01 02:23:28;;;;;;;23.23;20.13;;;7.80;18.60;;;;;;5075819;28;20222;-76
2021/05/01 02:25:54;;;;;;;22.03;19.63;;;7.70;20.20;;;;;;5075940;28;20168;-78
2021/05/01 02:28:19;;;;;;;23.90;20.83;;;7.80;22.00;;;;;;5075332;28;20168;-76
2021/05/01 02:30:45;;;;;;;22.70;20.27;;;7.80;21.50;;;;;;5075751;28;20198;-79
2021/05/01 02:33:11;;;;;;;25.67;21.10;;;7.90;18.00;;;;;;5075370;28;20393;-76
2021/05/01 02:35:38;;;;;;;25.13;20.47;;;8.00;6.70;;;;;;5075432;28;20172;-78
2021/05/01 02:38:05;;;;;;;23.83;20.23;;;7.90;6.70;;;;;;5075146;28;20237;-81
2021/05/01 02:40:32;;;;;;;25.47;21.27;;;7.90;7.30;;;;;;5075447;28;20183;-77
2021/05/01 02:43:00;;;;;;;24.37;21.03;;;7.90;6.40;;;;;;5074973;28;20175;-76
2021/05/01 02:45:25;;;;;;;25.67;21.97;;;8.00;3.70;;;;;;5075276;28;20176;-77
2021/05/01 02:47:51;;;;;;;27.53;20.83;;;8.00;1.00;;;;;;5075248;28;20555;-76
2021/05/01 02:50:18;;;;;;;23.93;21.13;;;8.00;1.00;;;;;;5075263;28;20640;-75
2021/05/01 02:52:44;;;;;;;28.30;21.50;;;7.90;1.90;;;;;;5074948;28;20179;-79
2021/05/01 02:55:11;;;;;;;25.40;21.83;;;7.90;4.80;;;;;;5075287;28;20595;-76
2021/05/01 02:57:37;;;;;;;26.97;21.87;;;7.90;1.00;;;;;;5074822;28;20207;-82
2021/05/01 03:00:06;;;;;;;27.23;21.87;;;8.00;1.00;;;;;;5075119;28;20208;-84
2021/05/01 03:02:32;;;;;;;24.03;21.43;;;7.70;2.50;;;;;;5074764;28;20216;-76
2021/05/01 03:04:58;;;;;;;24.77;21.53;;;7.60;13.20;;;;;;5075009;28;20174;-81
2021/05/01 03:07:24;;;;;;;26.30;22.40;;;7.70;9.50;;;;;;5074427;28;20168;-76
2021/05/01 03:09:49;;;;;;;27.23;22.63;;;7.70;1.00;;;;;;5074207;28;20243;-75
2021/05/01 03:12:15;;;;;;;25.60;22.67;;;7.70;1.00;;;;;;5074286;28;20169;-84
2021/05/01 03:14:41;;;;;;;26.97;23.23;;;7.60;1.00;;;;;;5075061;28;20643;-85
2021/05/01 03:17:07;;;;;;;28.87;24.07;;;7.60;2.50;;;;;;5074607;28;20226;-84
2021/05/01 03:19:32;;;;;;;26.53;23.20;;;7.40;11.80;;;;;;5074633;28;20606;-83
2021/05/01 03:21:58;;;;;;;25.27;21.90;;;7.20;22.60;;;;;;5074594;28;20579;-80
2021/05/01 03:24:24;;;;;;;30.43;22.77;;;7.10;32.60;;;;;;5074480;28;20175;-86
2021/05/01 03:26:49;;;;;;;29.67;22.13;;;7.00;37.70;;;;;;5074298;28;20699;-77
2021/05/01 03:29:15;;;;;;;24.13;21.53;;;7.10;39.50;;;;;;5074561;28;20263;-85
2021/05/01 03:31:41;;;;;;;24.80;21.63;;;7.10;36.00;;;;;;5074596;28;20180;-77
2021/05/01 03:34:06;;;;;;;22.87;20.47;;;7.20;30.10;;;;;;5073824;28;20192;-86
2021/05/01 03:36:32;;;;;;;28.43;23.90;;;7.00;30.10;;;;;;5074162;28;20263;-80
2021/05/01 03:38:58;;;;;;;25.67;21.00;;;7.00;33.00;;;;;;5074185;28;20200;-76
2021/05/01 03:41:23;;;;;;;24.83;20.10;;;6.90;35.10;;;;;;5073998;28;20625;-83
2021/05/01 03:43:49;;;;;;;23.90;21.40;;;7.00;35.90;;;;;;5074102;28;20179;-81
2021/05/01 03:46:15;;;;;;;24.67;20.80;;;7.00;34.40;;;;;;5074380;28;20168;-79
2021/05/01 03:48:40;;;;;;;24.33;21.70;;;7.20;30.70;;;;;;5074087;28;20176;-81
2021/05/01 03:51:06;;;;;;;25.17;20.97;;;7.10;28.50;;;;;;5073962;28;20206;-85
2021/05/01 03:53:32;;;;;;;24.47;21.10;;;7.10;27.90;;;;;;5073961;28;20608;-82
2021/05/01 03:55:57;;;;;;;26.30;21.03;;;7.20;25.70;;;;;;5073566;28;20169;-77
2021/05/01 03:58:23;;;;;;;25.87;21.53;;;7.20;20.40;;;;;;5073720;28;20656;-77
2021/05/01 04:00:50;;;;;;;26.47;21.47;;;7.20;17.70;;;;;;5073828;28;20173;-78
2021/05/01 04:03:15;;;;;;;23.20;20.73;;;7.10;21.00;;;;;;5073524;28;20176;-76
2021/05/01 04:05:41;;;;;;;23.90;21.20;;;7.00;24.10;;;;;;5073983;28;20283;-76
2021/05/01 04:08:06;;;;;;;24.87;21.27;;;6.90;27.60;;;;;;5073726;28;20257;-83
2021/05/01 04:10:33;;;;;;;26.53;21.87;;;6.80;31.20;;;;;;5072115;28;20212;-82
2021/05/01 04:12:59;;;;;;;24.93;21.00;;;6.80;28.20;;;;;;5073559;28;20252;-80
2021/05/01 04:15:26;;;;;;;23.97;21.40;;;6.70;30.90;;;;;;5073264;28;20207;-75
2021/05/01 04:17:53;;;;;;;29.03;21.30;;;6.90;26.40;;;;;;5073501;28;20188;-79
2021/05/01 04:20:19;;;;;;;25.93;22.57;;;6.70;23.50;;;;;;5073419;28;20194;-87
2021/05/01 04:22:45;;;;;;;26.93;21.67;;;6.50;27.00;;;;;;5073428;28;20164;-82
2021/05/01 04:25:12;;;;;;;26.30;20.33;;;6.40;30.40;;;;;;5072956;28;20241;-78
2021/05/01 04:27:38;;;;;;;24.43;20.03;;;6.20;34.70;;;;;;5073607;28;20157;-84
2021/05/01 04:30:08;;;;;;;28.80;20.93;;;6.00;38.20;;;;;;5073607;28;20172;-78
2021/05/01 04:32:34;;;;;;;27.50;23.00;;;6.00;42.80;;;;;;5072156;28;20205;-78
2021/05/01 04:35:00;;;;;;;29.23;22.70;;;5.80;45.30;;;;;;5073392;28;20176;-76
2021/05/01 04:37:26;;;;;;;32.53;22.30;;;5.70;48.70;;;;;;5073151;28;20715;-83
2021/05/01 04:39:51;;;;;;;25.93;21.97;;;5.70;51.30;;;;;;5072780;28;20246;-77
2021/05/01 04:42:17;;;;;;;27.63;23.70;;;5.50;53.20;;;;;;5073092;28;20199;-77
2021/05/01 04:44:43;;;;;;;29.87;24.00;;;5.60;55.10;;;;;;5073074;28;20207;-75
2021/05/01 04:47:10;;;;;;;31.60;24.17;;;5.60;54.50;;;;;;5073204;28;20225;-77
2021/05/01 04:49:36;;;;;;;33.13;23.53;;;5.60;56.50;;;;;;5073168;28;20164;-81
2021/05/01 04:52:02;;;;;;;29.40;24.30;;;5.50;57.20;;;;;;5072716;28;20176;-77
2021/05/01 04:54:28;;;;;;;28.03;24.03;;;5.50;57.60;;;;;;5073211;28;20198;-76
2021/05/01 04:56:54;;;;;;;29.20;25.57;;;5.60;58.70;;;;;;5073244;28;20262;-82
2021/05/01 04:59:19;;;;;;;28.17;24.73;;;5.70;57.50;;;;;;5071621;28;20223;-82
2021/05/01 05:01:45;;;;;;;35.30;26.53;;;5.70;57.50;;;;;;5073432;28;20167;-76
2021/05/01 05:04:11;;;;;;;33.00;27.70;;;5.70;59.60;;;;;;5076401;28;20187;-84
2021/05/01 05:06:37;;;;;;;28.47;25.33;;;5.80;61.70;;;;;;5074181;28;20263;-79
2021/05/01 05:09:03;;;;;;;34.73;27.63;;;5.70;62.70;;;;;;5073002;28;20234;-76
2021/05/01 05:11:29;;;;;;;36.23;29.33;;;5.80;63.20;;;;;;5073277;28;20187;-81
2021/05/01 05:13:55;;;;;;;37.13;28.57;;;6.00;62.30;;;;;;5073555;28;20258;-83
2021/05/01 05:16:21;;;;;;;37.97;29.70;;;6.10;58.50;;;;;;5073967;28;20532;-86
2021/05/01 05:18:47;;;;;;;36.97;29.70;;;6.10;59.00;;;;;;5073104;28;20204;-81
2021/05/01 05:21:12;;;;;;;34.47;28.37;;;6.20;61.00;;;;;;5073095;28;20606;-83
2021/05/01 05:23:38;;;;;;;34.10;28.37;;;6.30;59.40;;;;;;5072488;28;20202;-84
2021/05/01 05:26:04;;;;;;;32.47;27.50;;;6.30;59.20;;;;;;5072839;28;20648;-80
2021/05/01 05:28:29;;;;;;;31.43;27.63;;;6.50;58.50;;;;;;5072845;28;20258;-85
2021/05/01 05:30:55;;;;;;;30.70;27.50;;;6.60;56.50;;;;;;5072809;28;20179;-84
2021/05/01 05:33:21;;;;;;;30.50;26.90;;;6.70;51.90;;;;;;5076524;28;20199;-79
2021/05/01 05:35:46;;;;;;;31.10;27.37;;;6.80;49.20;;;;;;5076707;28;20169;-87
2021/05/01 05:38:12;;;;;;;34.50;27.70;;;7.00;45.80;;;;;;5076286;28;20211;-80
2021/05/01 05:40:41;;;;;;;31.07;27.60;;;7.00;43.90;;;;;;5076738;28;20183;-75
2021/05/01 05:43:07;;;;;;;34.07;28.07;;;7.10;41.00;;;;;;5076463;28;20187;-85
2021/05/01 05:45:33;;;;;;;34.37;29.00;;;7.20;38.00;;;;;;5076284;28;20172;-76
2021/05/01 05:47:59;;;;;;;35.97;30.60;;;7.30;35.90;;;;;;5076154;28;20195;-77
2021/05/01 05:50:25;;;;;;;34.23;28.73;;;7.50;31.80;;;;;;5076066;28;20636;-75
2021/05/01 05:52:50;;;;;;;33.37;29.27;;;7.60;26.20;;;;;;5076016;28;20630;-84
2021/05/01 05:55:17;;;;;;;31.90;27.67;;;7.60;18.40;;;;;;5076133;28;20172;-79
2021/05/01 05:57:51;;;;;;;32.63;28.50;;;7.70;17.10;;;;;;5076331;28;20180;-79
2021/05/01 06:00:18;;;;;;;37.77;29.13;;;7.60;16.40;;;;;;5076156;28;20180;-80
2021/05/01 06:02:44;;;;;;;31.33;26.77;;;7.60;23.50;;;;;;5075725;28;20211;-82
2021/05/01 06:05:15;;;;;;;31.57;28.17;;;7.50;28.00;;;;;;5076144;28;20203;-82
2021/05/01 06:07:43;;;;;;;33.07;29.47;;;7.60;22.80;;;;;;5075850;28;20164;-84
2021/05/01 06:10:11;;;;;;;35.13;29.57;;;7.70;7.40;;;;;;5076057;28;20172;-77
2021/05/01 06:12:38;;;;;;;34.43;28.17;;;7.70;8.20;;;;;;5075839;28;20260;-75
2021/05/01 06:15:09;;;;;;;34.77;29.17;;;7.70;17.00;;;;;;5075037;28;20502;-83
2021/05/01 06:17:36;;;;;;;33.47;28.77;;;7.70;23.80;;;;;;5075450;28;20164;-85
2021/05/01 06:20:06;;;;;;;36.30;29.67;;;7.90;15.70;;;;;;5075800;28;20207;-78
2021/05/01 06:22:34;;;;;;;34.57;28.97;;;8.00;1.00;;;;;;5075471;28;20215;-79
2021/05/01 06:25:00;;;;;;;33.03;27.93;;;8.00;6.40;;;;;;5075711;28;20164;-77
2021/05/01 06:27:26;;;;;;;31.53;27.73;;;8.00;17.00;;;;;;5075589;28;20557;-85
2021/05/01 06:29:52;;;;;;;31.90;27.50;;;8.10;20.80;;;;;;5075839;28;20380;-82
2021/05/01 06:32:20;;;;;;;36.23;28.27;;;8.20;19.10;;;;;;5075130;28;20269;-80
2021/05/01 06:34:47;;;;;;;31.10;27.70;;;8.30;13.90;;;;;;5075175;28;20173;-77
2021/05/01 06:37:16;;;;;;;35.60;27.73;;;8.50;1.00;;;;;;5075558;28;20633;-77
2021/05/01 06:39:43;;;;;;;31.63;27.03;;;8.60;1.00;;;;;;5075350;28;20261;-86
2021/05/01 06:42:16;;;;;;;30.47;25.37;;;8.80;1.00;;;;;;5074786;28;20167;-86
2021/05/01 06:44:54;;;;;;;29.10;25.60;;;8.90;1.00;;;;;;5073469;28;20176;-77
2021/05/01 06:47:28;;;;;;;29.47;26.37;;;8.80;1.00;;;;;;5075345;28;20164;-78
2021/05/01 06:50:24;;;;;;;29.77;23.53;;;8.90;1.00;;;;;;5073683;28;20192;-83
2021/05/01 06:52:50;;;;;;;24.47;20.97;;;9.20;1.00;;;;;;5074325;28;20191;-85
2021/05/01 06:55:18;;;;;;;28.17;21.77;;;9.30;1.00;;;;;;5074918;28;20203;-83
2021/05/01 06:57:51;;;;;;;25.47;22.73;;;9.30;1.00;;;;;;5074736;28;20179;-84
2021/05/01 07:00:19;;;;;;;25.30;22.67;;;9.50;1.00;;;;;;5073340;28;20709;-79
2021/05/01 07:02:47;;;;;;;28.83;23.47;;;9.60;1.00;;;;;;5074889;28;20168;-78
2021/05/01 07:05:24;;;;;;;25.70;22.33;;;9.70;1.00;;;;;;5074794;28;20211;-77
2021/05/01 07:07:50;;;;;;;25.93;22.20;;;9.80;1.00;;;;;;5074829;28;20608;-76
2021/05/01 07:10:18;;;;;;;25.30;21.60;;;9.80;1.00;;;;;;5075394;28;20255;-86
2021/05/01 07:12:44;;;;;;;24.50;21.17;;;10.00;1.00;;;;;;5077142;28;20190;-86
2021/05/01 07:15:18;;;;;;;24.70;20.60;;;10.20;1.00;;;;;;5079952;28;20174;-78
2021/05/01 07:17:45;;;;;;;24.57;21.27;;;10.20;1.00;;;;;;5090300;28;20152;-80
2021/05/01 07:20:12;;;;;;;24.00;21.47;;;10.20;1.00;;;;;;5087606;28;20196;-85
2021/05/01 07:22:38;;;;;;;23.10;20.60;;;10.40;1.00;;;;;;5077218;28;20191;-86
2021/05/01 07:25:06;;;;;;;24.40;21.80;;;10.50;1.00;;;;;;5074230;28;20169;-80
2021/05/01 07:27:32;;;;;;;25.37;21.27;;;10.50;1.00;;;;;;5074055;28;20196;-83
2021/05/01 07:30:00;;;;;;;25.47;21.47;;;10.50;1.00;;;;;;5074152;28;20250;-84
2021/05/01 07:32:31;;;;;;;25.63;21.27;;;10.60;1.00;;;;;;5073979;28;20191;-79
2021/05/01 07:34:57;;;;;;;21.77;18.83;;;10.60;1.00;;;;;;5073672;28;20573;-77
2021/05/01 07:37:27;;;;;;;22.93;20.53;;;10.60;1.00;;;;;;5074247;28;20164;-86
2021/05/01 07:39:54;;;;;;;24.30;20.13;;;10.80;1.00;;;;;;5074362;28;20284;-86
2021/05/01 07:42:22;;;;;;;24.07;19.77;;;10.90;1.00;;;;;;5074544;28;20187;-83
2021/05/01 07:44:51;;;;;;;24.50;20.43;;;11.00;1.00;;;;;;5074834;28;20188;-85
2021/05/01 07:47:21;;;;;;;24.20;18.87;;;11.10;1.00;;;;;;5066553;28;20161;-82
2021/05/01 07:49:47;;;;;;;21.00;17.70;;;11.20;1.00;;;;;;5059104;28;20185;-86
2021/05/01 07:52:15;;;;;;;20.30;15.13;;;11.30;1.00;;;;;;5067566;28;20652;-86
2021/05/01 07:54:42;;;;;;;20.17;16.17;;;10.70;99.90;;;;;;5072188;28;20176;-84
2021/05/01 07:57:09;;;;;;;19.77;15.87;;;10.50;1.00;;;;;;5070615;28;20193;-85
2021/05/01 07:59:35;;;;;;;17.90;16.00;;;10.40;1.00;;;;;;5061232;28;20228;-88
2021/05/01 08:02:03;;;;;;;20.17;15.97;;;10.40;1.00;;;;;;5072808;28;20204;-79
2021/05/01 08:04:28;;;;;;;21.43;16.27;;;10.30;1.00;;;;;;5072820;28;20637;-82
2021/05/01 08:06:54;;;;;;;19.27;15.40;;;10.40;1.00;;;;;;5054205;28;20196;-84
2021/05/01 08:09:26;;;;;;;19.60;16.53;;;10.20;1.00;;;;;;5066596;28;20620;-79
2021/05/01 08:11:54;;;;;;;18.37;14.03;;;10.20;1.00;;;;;;5073763;28;20169;-80
2021/05/01 08:14:20;;;;;;;20.53;15.50;;;10.00;1.00;;;;;;5073815;28;20294;-78
2021/05/01 08:16:47;;;;;;;21.13;15.63;;;10.20;1.00;;;;;;5073664;28;20203;-85
2021/05/01 08:19:13;;;;;;;17.97;13.90;;;10.50;1.00;;;;;;5073422;28;20208;-81
2021/05/01 08:21:39;;;;;;;19.30;14.77;;;10.50;1.00;;;;;;5073433;28;20171;-77
2021/05/01 08:24:05;;;;;;;16.70;14.40;;;10.40;1.00;;;;;;5073506;28;20172;-89
2021/05/01 08:26:31;;;;;;;15.57;12.67;;;10.30;1.00;;;;;;5074399;28;20168;-78
2021/05/01 08:28:59;;;;;;;17.53;12.83;;;10.10;1.00;;;;;;5072706;28;20716;-79
2021/05/01 08:31:25;;;;;;;15.80;11.67;;;10.10;1.00;;;;;;5068870;28;20168;-83
2021/05/01 08:33:50;;;;;;;16.77;14.37;;;9.90;1.00;;;;;;5052065;28;20675;-82
2021/05/01 08:36:17;;;;;;;18.67;13.73;;;10.00;1.00;;;;;;5052414;28;20271;-79
2021/05/01 08:38:42;;;;;;;13.00;11.67;;;10.10;1.00;;;;;;5053107;28;20560;-79
2021/05/01 08:41:08;;;;;;;16.33;13.43;;;10.10;1.00;;;;;;5052553;28;20204;-82
2021/05/01 08:43:34;;;;;;;16.90;12.73;;;10.40;1.00;;;;;;5052057;28;20196;-76
2021/05/01 08:46:02;;;;;;;15.50;13.13;;;10.60;1.00;;;;;;5052335;28;20176;-83
2021/05/01 08:48:28;;;;;;;12.53;10.60;;;10.90;1.00;;;;;;5054222;28;20171;-83
2021/05/01 08:51:02;;;;;;;13.13;10.50;;;10.80;99.90;;;;;;5056601;28;20169;-79
2021/05/01 08:53:29;;;;;;;13.80;9.97;;;10.80;99.90;;;;;;5052630;28;20237;-80
2021/05/01 08:55:55;;;;;;;17.20;11.13;;;10.80;99.90;;;;;;5056981;28;20177;-79
2021/05/01 08:58:21;;;;;;;12.77;11.33;;;11.10;99.90;;;;;;5062626;28;20204;-78
2021/05/01 09:00:48;;;;;;;12.00;10.53;;;10.90;99.90;;;;;;5064858;28;20648;-86
2021/05/01 09:03:18;;;;;;;15.03;10.87;;;11.10;99.90;;;;;;5063302;28;20202;-80
2021/05/01 09:05:45;;;;;;;14.93;10.73;;;11.30;1.00;;;;;;5061024;28;20750;-81
2021/05/01 09:08:12;;;;;;;12.63;10.53;;;11.10;99.90;;;;;;5071087;28;20259;-85
2021/05/01 09:10:50;;;;;;;12.30;9.53;;;11.00;1.00;;;;;;5069980;28;20593;-77
2021/05/01 09:13:22;;;;;;;12.53;8.40;;;11.00;1.00;;;;;;5072030;28;20338;-82
2021/05/01 09:16:22;;;;;;;12.40;9.57;;;10.90;99.90;;;;;;5071906;28;20165;-87
2021/05/01 09:18:53;;;;;;;11.97;9.00;;;11.10;1.00;;;;;;5072609;28;20215;-83
2021/05/01 09:21:25;;;;;;;11.27;8.67;;;11.20;1.00;;;;;;5072079;28;20152;-82
2021/05/01 09:23:53;;;;;;;10.47;9.00;;;11.30;99.90;;;;;;5072635;28;20178;-83
2021/05/01 09:26:42;;;;;;;11.80;9.43;;;11.60;99.90;;;;;;5072300;28;20164;-78
2021/05/01 09:29:09;;;;;;;13.20;9.07;;;11.80;99.90;;;;;;5072005;28;20535;-79
2021/05/01 09:31:46;;;;;;;11.80;8.47;;;11.80;99.90;;;;;;5071918;28;20605;-82
2021/05/01 09:34:11;;;;;;;9.70;8.43;;;11.50;1.00;;;;;;5072832;28;20245;-81
2021/05/01 09:36:39;;;;;;;11.73;9.57;;;11.40;99.90;;;;;;5072767;28;20579;-82
2021/05/01 09:39:07;;;;;;;11.47;10.27;;;11.30;1.00;;;;;;5072003;28;20219;-86
2021/05/01 09:41:44;;;;;;;12.20;10.07;;;11.40;1.00;;;;;;5071970;28;20173;-86
2021/05/01 09:44:16;;;;;;;12.17;9.37;;;11.60;99.90;;;;;;5071304;28;20175;-86
2021/05/01 09:46:46;;;;;;;13.37;10.70;;;11.50;1.00;;;;;;5072170;28;20242;-88
2021/05/01 09:49:18;;;;;;;13.13;10.30;;;11.40;99.90;;;;;;5071995;28;20540;-78
2021/05/01 09:51:48;;;;;;;13.87;11.77;;;11.50;99.90;;;;;;5071940;28;20179;-85
2021/05/01 09:54:16;;;;;;;14.83;10.13;;;11.50;1.00;;;;;;5072338;28;20156;-82
2021/05/01 09:56:45;;;;;;;13.63;10.77;;;11.40;99.90;;;;;;5071088;28;20222;-83
2021/05/01 09:59:11;;;;;;;13.77;11.23;;;11.50;99.90;;;;;;5072226;28;20310;-82
2021/05/01 10:01:38;;;;;;;12.27;10.63;;;11.60;90.50;;;;;;5073707;28;20172;-81
2021/05/01 10:04:16;;;;;;;12.77;11.57;;;11.80;99.90;;;;;;5072326;28;20577;-81
2021/05/01 10:06:53;;;;;;;14.47;11.57;;;11.90;1.00;;;;;;5070893;28;20188;-88
2021/05/01 10:09:32;;;;;;;12.53;11.20;;;12.00;1.00;;;;;;5072456;28;20181;-85
2021/05/01 10:12:03;;;;;;;13.87;11.63;;;12.30;99.90;;;;;;5072288;28;20168;-87
2021/05/01 10:14:36;;;;;;;13.60;10.60;;;12.40;1.00;;;;;;5071424;28;20168;-87
2021/05/01 10:17:02;;;;;;;13.43;12.03;;;12.50;99.90;;;;;;5073171;28;20161;-82
2021/05/01 10:19:49;;;;;;;13.60;11.77;;;12.60;1.00;;;;;;5076059;28;20212;-83
2021/05/01 10:22:32;;;;;;;14.20;12.10;;;12.40;99.90;;;;;;5075348;28;20168;-82
2021/05/01 10:25:11;;;;;;;14.03;10.97;;;12.40;99.90;;;;;;5074329;28;20200;-81
2021/05/01 10:27:57;;;;;;;14.07;11.20;;;12.20;99.90;;;;;;5074048;28;20603;-84
2021/05/01 10:30:28;;;;;;;16.90;11.37;;;12.30;1.00;;;;;;5075210;28;20165;-86
2021/05/01 10:35:47;;;;;;;13.67;11.23;;;12.70;1.00;;;;;;5075487;28;20711;-88
2021/05/01 10:38:17;;;;;;;13.30;9.83;;;12.80;1.00;;;;;;5074713;28;20325;-86
2021/05/01 10:40:52;;;;;;;13.07;11.23;;;12.30;1.00;;;;;;5074114;28;20587;-80
2021/05/01 10:43:21;;;;;;;12.30;10.50;;;11.80;99.90;;;;;;5073718;28;20194;-79
2021/05/01 10:45:53;;;;;;;11.07;9.53;;;11.80;1.00;;;;;;5074623;28;20172;-85
2021/05/01 10:48:19;;;;;;;12.03;9.73;;;11.80;99.90;;;;;;5075037;28;20592;-82
2021/05/01 10:50:45;;;;;;;11.60;9.63;;;11.90;99.90;;;;;;5074842;28;20183;-82
2021/05/01 10:53:20;;;;;;;10.03;9.03;;;11.90;99.90;;;;;;5074321;28;20176;-82
2021/05/01 10:55:52;;;;;;;10.23;9.13;;;11.90;99.90;;;;;;5074123;28;20246;-81
2021/05/01 10:58:34;;;;;;;10.53;8.10;;;11.90;99.90;;;;;;5074910;28;20165;-82
2021/05/01 11:01:00;;;;;;;9.90;8.83;;;11.90;99.90;;;;;;5089386;28;20176;-82
2021/05/01 11:03:27;;;;;;;10.60;9.27;;;12.20;99.90;;;;;;5094679;28;20224;-85
2021/05/01 11:05:56;;;;;;;11.23;8.87;;;12.60;99.90;;;;;;5094669;28;20532;-84
2021/05/01 11:09:05;;;;;;;10.73;8.90;;;12.90;97.30;;;;;;5095031;28;20171;-85
2021/05/01 11:11:37;;;;;;;8.80;7.83;;;13.20;1.00;;;;;;5093719;28;20186;-81
2021/05/01 11:14:23;;;;;;;9.73;8.57;;;13.00;1.00;;;;;;5094376;28;20168;-85
2021/05/01 11:17:14;;;;;;;9.83;8.00;;;12.70;99.90;;;;;;5094566;28;20164;-79
2021/05/01 11:19:43;;;;;;;9.63;7.97;;;12.70;99.90;;;;;;5093986;28;20237;-81
2021/05/01 11:22:13;;;;;;;10.03;9.10;;;12.60;1.00;;;;;;5095721;28;20658;-85
2021/05/01 11:24:40;;;;;;;10.03;8.70;;;12.40;1.00;;;;;;5096457;28;20248;-80
2021/05/01 11:27:06;;;;;;;10.67;8.43;;;12.30;1.00;;;;;;5094016;28;20176;-87
2021/05/01 11:29:33;;;;;;;10.97;8.57;;;12.40;1.00;;;;;;5094909;28;20160;-79
2021/05/01 11:31:59;;;;;;;8.73;7.83;;;12.60;1.00;;;;;;5095426;28;20170;-78
2021/05/01 11:34:29;;;;;;;8.67;7.77;;;12.90;1.00;;;;;;5094559;28;20183;-81
2021/05/01 11:36:55;;;;;;;9.93;8.40;;;13.40;99.90;;;;;;5095553;28;20160;-84
2021/05/01 11:39:21;;;;;;;8.57;7.77;;;13.10;99.90;;;;;;5095906;28;20321;-88
2021/05/01 11:41:47;;;;;;;10.00;7.77;;;13.20;99.90;;;;;;5095322;28;20164;-84
2021/05/01 11:44:16;;;;;;;9.07;7.57;;;13.40;99.90;;;;;;5095504;28;20174;-87
2021/05/01 11:47:11;;;;;;;7.80;7.00;;;13.40;99.90;;;;;;5094732;28;20534;-83
2021/05/01 11:49:37;;;;;;;10.20;7.10;;;13.20;99.90;;;;;;5097155;28;20542;-87
2021/05/01 11:52:13;;;;;;;8.50;7.70;;;13.10;62.30;;;;;;5096324;28;20189;-88
2021/05/01 11:55:21;;;;;;;8.80;7.90;;;13.10;99.90;;;;;;5095752;28;20167;-87
2021/05/01 11:57:57;;;;;;;9.97;8.20;;;12.90;99.90;;;;;;5090664;28;20180;-88
2021/05/01 12:00:41;;;;;;;8.83;7.63;;;13.00;99.90;;;;;;5084340;28;20208;-87
2021/05/01 12:03:20;;;;;;;9.80;8.90;;;13.00;99.90;;;;;;5071604;28;20230;-82
2021/05/01 12:05:52;;;;;;;11.23;8.30;;;12.70;99.90;;;;;;5073322;28;20173;-81
2021/05/01 12:08:23;;;;;;;10.30;8.37;;;12.70;99.90;;;;;;5073246;28;20194;-80
2021/05/01 12:10:50;;;;;;;11.10;8.40;;;12.90;99.90;;;;;;5073567;28;20160;-80
2021/05/01 12:13:38;;;;;;;10.17;8.57;;;12.70;99.90;;;;;;5074356;28;20160;-84
2021/05/01 12:16:06;;;;;;;8.73;7.83;;;12.80;99.90;;;;;;5084901;28;20219;-79
2021/05/01 12:18:42;;;;;;;8.47;7.57;;;12.60;99.90;;;;;;5082379;28;20211;-81
2021/05/01 12:21:08;;;;;;;8.27;7.37;;;12.70;99.90;;;;;;5084572;28;20195;-87
2021/05/01 12:23:51;;;;;;;10.13;9.10;;;12.90;42.80;;;;;;5075591;28;20176;-83
2021/05/01 12:26:31;;;;;;;10.47;9.17;;;13.00;1.00;;;;;;5072571;28;20165;-85
2021/05/01 12:29:17;;;;;;;11.27;10.17;;;12.60;1.00;;;;;;5074056;28;20198;-82
2021/05/01 12:31:45;;;;;;;12.87;11.23;;;12.50;99.90;;;;;;5072355;28;20248;-84
2021/05/01 12:34:10;;;;;;;13.00;11.63;;;12.40;1.00;;;;;;5072397;28;20229;-87
2021/05/01 12:36:41;;;;;;;12.33;11.00;;;12.60;99.90;;;;;;5072327;28;20173;-82
2021/05/01 12:39:08;;;;;;;11.57;10.37;;;12.60;1.00;;;;;;5072090;28;20203;-85
2021/05/01 12:41:36;;;;;;;15.10;11.77;;;12.40;1.00;;;;;;5072565;28;20161;-87
2021/05/01 12:44:03;;;;;;;13.70;11.37;;;12.30;1.00;;;;;;5072236;28;20245;-86
2021/05/01 12:46:31;;;;;;;12.87;11.67;;;12.20;99.90;;;;;;5072925;28;20644;-82
2021/05/01 12:48:59;;;;;;;13.47;10.63;;;12.20;99.90;;;;;;5072275;28;20255;-85
2021/05/01 12:51:25;;;;;;;11.33;10.23;;;12.10;1.00;;;;;;5071984;28;20161;-85
2021/05/01 12:53:52;;;;;;;12.97;10.50;;;12.10;99.90;;;;;;5071999;28;20225;-82